Time;durP1;ratioP1;P1;durP2;ratioP2;P2;SDS_P1;SDS_P2;PMS_P1;PMS_P2;Temp;Humidity;BMP_temperature;BMP_pressure;BME280_temperature;BME280_humidity;BME280_pressure;Samples;Min_cycle;Max_cycle;Signal;HPM_P1;HPM_P2
2023/06/05 00:04:36;;;;;;;6.00;2.90;;;;;;;11.37;59.75;99232.09;224917;1283;22550;-70
2023/06/05 00:09:39;;;;;;;5.60;3.40;;;;;;;11.40;60.39;99232.30;224891;1287;22543;-70
2023/06/05 00:15:02;;;;;;;6.70;3.20;;;;;;;11.42;60.81;99237.17;224957;1286;25256;-70
2023/06/05 00:20:05;;;;;;;5.20;3.60;;;;;;;11.35;60.90;99238.55;224937;1284;25258;-69
2023/06/05 00:25:12;;;;;;;3.90;3.10;;;;;;;11.20;60.99;99238.35;224945;1284;23453;-70
2023/06/05 00:30:14;;;;;;;6.40;3.10;;;;;;;11.06;61.38;99233.40;224945;1287;22602;-70
2023/06/05 00:35:16;;;;;;;7.30;3.20;;;;;;;10.91;61.28;99238.22;224942;1284;22553;-70
2023/06/05 00:40:29;;;;;;;4.80;2.90;;;;;;;10.79;61.73;99237.93;224968;1288;22576;-69
2023/06/05 00:46:08;;;;;;;6.10;3.10;;;;;;;10.69;61.76;99237.19;225224;1284;22543;-70
2023/06/05 00:51:15;;;;;;;6.00;3.50;;;;;;;10.61;61.63;99230.84;225136;1283;22540;-69
2023/06/05 00:56:20;;;;;;;5.30;3.40;;;;;;;10.56;61.85;99228.98;225391;1280;22550;-69
2023/06/05 01:01:24;;;;;;;6.30;3.30;;;;;;;10.51;62.39;99222.94;225379;1283;22560;-73
2023/06/05 01:06:28;;;;;;;6.70;2.90;;;;;;;10.47;62.28;99221.20;225406;1283;22560;-70
2023/06/05 01:12:11;;;;;;;6.30;3.40;;;;;;;10.46;62.44;99217.48;225371;1279;22553;-70
2023/06/05 01:17:13;;;;;;;5.40;2.90;;;;;;;10.43;62.26;99213.17;225344;1283;22584;-70
2023/06/05 01:22:16;;;;;;;5.20;3.10;;;;;;;10.40;62.48;99213.75;225327;1281;22555;-70
2023/06/05 01:27:27;;;;;;;7.80;3.00;;;;;;;10.36;62.62;99210.70;225337;1263;22582;-70
2023/06/05 01:32:39;;;;;;;6.10;3.60;;;;;;;10.34;62.75;99207.80;225444;1281;24262;-70
2023/06/05 01:37:46;;;;;;;5.90;3.20;;;;;;;10.33;63.21;99204.52;225472;1281;22530;-70
2023/06/05 01:42:51;;;;;;;7.70;3.40;;;;;;;10.33;62.87;99211.56;225249;1283;22530;-70
2023/06/05 01:47:57;;;;;;;6.20;3.20;;;;;;;10.31;63.18;99209.00;225416;1281;22539;-70
2023/06/05 01:53:05;;;;;;;4.60;3.10;;;;;;;10.30;63.34;99210.45;225468;1280;22531;-70
2023/06/05 01:58:08;;;;;;;5.00;3.30;;;;;;;10.32;63.71;99208.89;225389;1280;22550;-70
2023/06/05 02:03:15;;;;;;;8.30;3.80;;;;;;;10.30;64.00;99214.06;225384;1281;24374;-70
2023/06/05 02:08:19;;;;;;;9.50;3.40;;;;;;;10.22;63.69;99216.13;225457;1281;22575;-70
2023/06/05 02:13:24;;;;;;;5.10;3.50;;;;;;;10.14;64.00;99219.15;225332;1282;23020;-69
2023/06/05 02:18:30;;;;;;;5.50;3.60;;;;;;;10.03;64.18;99213.40;225360;1283;22579;-70
2023/06/05 02:23:33;;;;;;;8.00;4.40;;;;;;;9.94;64.30;99213.55;225478;1283;22554;-71
2023/06/05 02:28:35;;;;;;;5.90;3.50;;;;;;;9.86;64.61;99211.69;225361;1280;22550;-70
2023/06/05 02:33:37;;;;;;;5.30;3.50;;;;;;;9.78;65.00;99213.44;225360;1282;22593;-70
2023/06/05 02:38:40;;;;;;;7.00;3.40;;;;;;;9.71;64.88;99212.64;225361;1279;22592;-70
2023/06/05 02:43:43;;;;;;;7.60;3.20;;;;;;;9.66;65.26;99212.52;226172;1279;22590;-70
2023/06/05 02:48:46;;;;;;;6.60;3.80;;;;;;;9.62;65.58;99210.64;226097;1274;22561;-70
2023/06/05 02:53:49;;;;;;;6.10;3.60;;;;;;;9.61;65.72;99208.90;225942;1277;23103;-70
2023/06/05 02:58:52;;;;;;;5.20;3.20;;;;;;;9.60;65.63;99211.64;226114;1274;22547;-70
2023/06/05 03:03:56;;;;;;;6.30;3.40;;;;;;;9.60;66.01;99207.88;226191;1274;22951;-69
2023/06/05 03:09:00;;;;;;;5.90;3.20;;;;;;;9.63;66.09;99210.67;226178;1279;22543;-70
2023/06/05 03:14:02;;;;;;;5.00;2.60;;;;;;;9.68;66.23;99213.30;226171;1279;22556;-70
2023/06/05 03:19:13;;;;;;;5.90;3.10;;;;;;;9.80;65.97;99213.33;226152;1278;22555;-69
2023/06/05 03:24:16;;;;;;;5.20;3.20;;;;;;;10.19;65.88;99214.70;226157;1276;22538;-70
2023/06/05 03:29:23;;;;;;;7.90;2.80;;;;;;;10.66;65.61;99212.83;226210;1279;22549;-70
2023/06/05 03:34:26;;;;;;;5.80;3.00;;;;;;;11.11;65.22;99209.07;226087;1278;22546;-70
2023/06/05 03:39:33;;;;;;;4.60;3.00;;;;;;;11.55;64.38;99210.91;226095;1278;22547;-70
2023/06/05 03:44:38;;;;;;;6.00;3.20;;;;;;;12.02;63.65;99210.38;226184;1279;22552;-70
2023/06/05 03:49:45;;;;;;;6.10;3.20;;;;;;;12.48;63.19;99207.61;225915;1279;22741;-70
2023/06/05 03:54:55;;;;;;;5.40;2.90;;;;;;;12.85;62.55;99215.36;226104;1279;23794;-69
2023/06/05 03:59:58;;;;;;;4.50;2.80;;;;;;;13.13;61.93;99215.95;226140;1275;22857;-70
2023/06/05 04:05:11;;;;;;;5.90;2.80;;;;;;;13.23;61.66;99216.59;226139;1278;22546;-69
2023/06/05 04:10:34;;;;;;;5.80;2.90;;;;;;;13.27;61.53;99213.41;226103;1277;24273;-70
2023/06/05 04:15:37;;;;;;;4.80;2.90;;;;;;;13.28;61.40;99207.33;226169;1276;22577;-72
2023/06/05 04:20:39;;;;;;;7.40;3.20;;;;;;;13.29;61.44;99207.74;225963;1279;22559;-70
2023/06/05 04:25:45;;;;;;;6.20;3.10;;;;;;;13.31;61.73;99207.52;226144;1279;24369;-69
2023/06/05 04:30:49;;;;;;;4.60;2.70;;;;;;;13.29;62.06;99206.11;226221;1278;22541;-70
2023/06/05 04:35:53;;;;;;;8.30;3.30;;;;;;;13.32;62.34;99206.42;226201;1278;25361;-70
2023/06/05 04:40:55;;;;;;;5.80;2.80;;;;;;;13.38;62.60;99209.63;226107;1279;22546;-70
2023/06/05 04:46:18;;;;;;;6.60;3.20;;;;;;;13.46;63.07;99214.30;225917;1279;25243;-69
2023/06/05 04:51:43;;;;;;;6.20;3.20;;;;;;;13.58;63.25;99214.23;226183;1279;22537;-70
2023/06/05 04:56:50;;;;;;;7.20;3.40;;;;;;;13.71;63.36;99210.09;225917;1279;22548;-69
2023/06/05 05:02:03;;;;;;;5.60;3.70;;;;;;;13.82;63.39;99210.42;226260;1279;23466;-69
2023/06/05 05:07:07;;;;;;;5.00;3.00;;;;;;;13.90;63.80;99213.45;226193;1276;24244;-70
2023/06/05 05:12:11;;;;;;;4.40;3.30;;;;;;;14.00;63.72;99215.68;226030;1279;22534;-72
2023/06/05 05:17:16;;;;;;;5.80;3.20;;;;;;;14.14;63.52;99215.61;226213;1275;22536;-70
2023/06/05 05:22:23;;;;;;;5.90;2.80;;;;;;;14.33;63.60;99213.16;226201;1279;22658;-69
2023/06/05 05:27:29;;;;;;;4.10;2.80;;;;;;;14.54;63.61;99219.81;226216;1276;22556;-70
2023/06/05 05:32:32;;;;;;;5.70;2.90;;;;;;;14.75;63.23;99217.41;226168;1277;22539;-70
2023/06/05 05:37:34;;;;;;;5.60;2.80;;;;;;;14.88;62.85;99216.80;226190;1277;22564;-70
2023/06/05 05:42:36;;;;;;;3.80;2.80;;;;;;;15.06;62.57;99219.13;226225;1273;22548;-70
2023/06/05 05:47:38;;;;;;;3.80;2.90;;;;;;;15.24;62.62;99214.25;226327;1274;22538;-68
2023/06/05 05:52:42;;;;;;;3.10;2.50;;;;;;;15.42;62.41;99219.21;226222;1264;23202;-69
2023/06/05 05:57:47;;;;;;;3.20;2.60;;;;;;;15.62;61.68;99221.41;225926;1276;22542;-69
2023/06/05 06:02:52;;;;;;;3.40;2.30;;;;;;;15.79;61.52;99223.27;226054;1271;22555;-68
2023/06/05 06:07:58;;;;;;;4.60;2.40;;;;;;;15.97;61.02;99218.11;225661;1255;22575;-68
2023/06/05 06:13:00;;;;;;;3.60;2.30;;;;;;;16.21;61.13;99218.70;225832;1264;22540;-68
2023/06/05 06:18:03;;;;;;;7.40;2.70;;;;;;;16.47;60.97;99220.63;221628;1258;5391921;-68
2023/06/05 06:23:06;;;;;;;7.20;2.80;;;;;;;16.72;60.78;99219.47;224985;1262;137173;-69
2023/06/05 06:28:09;;;;;;;5.60;2.20;;;;;;;16.90;60.24;99219.30;225056;1267;137214;-70
2023/06/05 06:33:11;;;;;;;5.20;2.30;;;;;;;17.10;59.91;99223.14;225116;1260;137216;-71
2023/06/05 06:38:33;;;;;;;3.80;2.30;;;;;;;17.34;59.09;99224.64;225167;1281;137275;-79
2023/06/05 06:43:35;;;;;;;4.50;2.50;;;;;;;17.64;58.79;99223.36;225198;1267;137227;-70
2023/06/05 06:48:41;;;;;;;3.90;2.50;;;;;;;17.90;58.63;99226.37;225342;1275;137230;-69
2023/06/05 06:53:58;;;;;;;5.30;2.20;;;;;;;18.13;57.59;99218.58;224813;1260;137548;-69
2023/06/05 06:59:02;;;;;;;5.90;2.30;;;;;;;18.36;56.90;99223.13;224938;1281;22561;-69
2023/06/05 07:04:04;;;;;;;6.90;2.40;;;;;;;18.59;56.21;99224.83;225512;1260;137068;-69
2023/06/05 07:09:07;;;;;;;4.40;2.20;;;;;;;18.79;55.81;99221.07;225486;1264;137320;-69
2023/06/05 07:14:11;;;;;;;3.80;2.10;;;;;;;19.03;54.97;99224.60;225602;1268;137262;-70
2023/06/05 07:19:15;;;;;;;6.50;2.40;;;;;;;19.27;54.46;99228.75;225456;1273;137231;-70
2023/06/05 07:24:18;;;;;;;9.80;4.90;;;;;;;19.53;54.18;99224.14;225488;1257;137342;-70
2023/06/05 07:29:20;;;;;;;4.90;2.50;;;;;;;19.80;53.81;99223.71;225591;1274;137383;-70
2023/06/05 07:34:24;;;;;;;6.10;2.50;;;;;;;20.05;53.16;99226.48;225575;1279;22553;-70
2023/06/05 07:39:27;;;;;;;6.80;2.70;;;;;;;20.32;52.86;99221.64;225474;1273;137489;-70
2023/06/05 07:44:29;;;;;;;3.90;2.20;;;;;;;20.56;52.55;99219.50;225420;1273;137463;-70
2023/06/05 07:49:59;;;;;;;3.10;2.40;;;;;;;20.77;52.34;99208.60;225374;1258;137250;-71
2023/06/05 07:55:01;;;;;;;5.10;2.40;;;;;;;20.97;51.98;99204.84;225351;1257;137263;-70
2023/06/05 08:00:09;;;;;;;4.20;2.50;;;;;;;21.19;51.45;99205.88;225209;1260;137733;-72
2023/06/05 08:05:16;;;;;;;4.80;2.20;;;;;;;21.36;51.17;99201.69;225272;1262;137220;-72
2023/06/05 08:10:18;;;;;;;5.10;2.40;;;;;;;21.52;50.53;99199.54;225322;1265;22555;-72
2023/06/05 08:15:20;;;;;;;12.30;2.90;;;;;;;21.77;50.56;99193.20;225380;1277;137075;-72
2023/06/05 08:20:22;;;;;;;9.40;2.90;;;;;;;22.07;49.80;99189.26;225447;1272;137588;-71
2023/06/05 08:25:25;;;;;;;14.00;3.70;;;;;;;22.27;49.15;99189.85;225402;1279;137191;-72
2023/06/05 08:30:27;;;;;;;4.60;2.80;;;;;;;22.50;48.15;99189.60;225424;1279;137695;-71
2023/06/05 08:35:29;;;;;;;5.60;3.20;;;;;;;22.66;47.80;99187.31;225649;1264;137517;-72
2023/06/05 08:40:33;;;;;;;4.20;2.50;;;;;;;22.90;47.19;99192.70;225716;1272;22543;-71
2023/06/05 08:45:36;;;;;;;3.80;2.40;;;;;;;23.02;46.47;99189.06;225425;1264;136849;-73
2023/06/05 08:50:39;;;;;;;9.30;3.00;;;;;;;23.22;46.40;99190.50;225574;1275;137128;-71
2023/06/05 08:55:41;;;;;;;6.70;3.00;;;;;;;23.42;45.72;99189.00;225344;1276;137324;-71
2023/06/05 09:00:44;;;;;;;6.60;2.60;;;;;;;23.60;44.79;99187.19;225457;1279;137337;-70
2023/06/05 09:05:47;;;;;;;14.80;3.40;;;;;;;23.76;44.61;99183.90;225585;1277;137310;-71
2023/06/05 09:10:52;;;;;;;12.30;3.40;;;;;;;23.97;44.47;99193.05;225758;1275;25373;-71
2023/06/05 09:15:54;;;;;;;6.20;2.60;;;;;;;24.15;43.55;99187.98;225719;1270;137206;-71
2023/06/05 09:20:57;;;;;;;9.70;3.80;;;;;;;24.32;43.87;99183.89;225555;1276;137242;-71
2023/06/05 09:26:01;;;;;;;5.50;2.90;;;;;;;24.49;43.30;99184.84;225661;1275;137172;-71
2023/06/05 09:31:04;;;;;;;6.00;3.10;;;;;;;24.61;42.53;99180.20;225521;1264;137355;-71
2023/06/05 09:36:11;;;;;;;6.80;3.10;;;;;;;24.66;41.86;99169.77;225352;1275;137305;-70
2023/06/05 09:41:15;;;;;;;5.30;3.10;;;;;;;24.75;41.79;99169.06;225522;1270;22583;-70
2023/06/05 09:46:17;;;;;;;9.90;3.70;;;;;;;24.89;41.92;99163.81;225776;1271;22547;-70
2023/06/05 09:51:22;;;;;;;7.70;3.20;;;;;;;25.08;41.88;99164.30;225567;1271;136866;-71
2023/06/05 09:56:26;;;;;;;3.20;2.80;;;;;;;25.15;41.31;99166.17;225530;1263;137359;-72
2023/06/05 10:01:29;;;;;;;6.10;3.30;;;;;;;25.28;41.39;99161.55;225581;1264;138054;-70
2023/06/05 10:06:33;;;;;;;6.70;3.00;;;;;;;25.45;41.31;99154.89;225603;1267;137228;-71
2023/06/05 10:11:35;;;;;;;3.20;2.90;;;;;;;25.65;40.96;99151.21;225350;1279;137706;-71
2023/06/05 10:16:39;;;;;;;3.80;2.80;;;;;;;25.88;41.00;99140.94;225716;1276;22610;-72
2023/06/05 10:21:41;;;;;;;8.60;3.30;;;;;;;26.07;41.11;99138.39;225610;1272;136861;-71
2023/06/05 10:27:12;;;;;;;4.10;3.00;;;;;;;26.20;41.14;99137.11;225445;1256;137511;-70
2023/06/05 10:32:32;;;;;;;3.50;3.10;;;;;;;26.34;40.24;99136.55;225589;1277;137335;-78
2023/06/05 10:38:17;;;;;;;3.80;3.10;;;;;;;26.38;40.32;99134.85;225712;1271;137191;-72
2023/06/05 10:43:52;;;;;;;3.70;3.00;;;;;;;26.53;40.48;99127.36;225641;1274;137296;-74
2023/06/05 10:49:11;;;;;;;5.10;3.10;;;;;;;26.71;39.98;99129.91;225756;1271;137449;-72
2023/06/05 10:54:16;;;;;;;5.30;3.30;;;;;;;26.83;39.76;99128.77;225680;1271;137269;-73
2023/06/05 10:59:32;;;;;;;11.80;4.50;;;;;;;26.96;39.76;99122.38;225419;1273;137267;-72
2023/06/05 11:04:46;;;;;;;6.50;3.40;;;;;;;27.09;39.54;99123.02;225663;1277;22603;-73
2023/06/05 11:10:02;;;;;;;5.50;3.30;;;;;;;27.14;39.10;99127.48;225669;1271;137639;-72
2023/06/05 11:15:06;;;;;;;5.10;3.40;;;;;;;27.28;39.19;99124.33;225756;1257;137296;-73
2023/06/05 11:20:28;;;;;;;4.40;3.30;;;;;;;27.45;38.73;99121.40;225579;1271;137372;-73
2023/06/05 11:25:32;;;;;;;4.10;3.70;;;;;;;27.61;38.82;99113.63;225774;1276;137219;-73
2023/06/05 11:30:42;;;;;;;4.60;3.30;;;;;;;27.82;39.04;99111.46;225831;1274;137304;-74
2023/06/05 11:35:52;;;;;;;4.20;3.60;;;;;;;28.00;38.57;99104.67;225578;1265;137262;-73
2023/06/05 11:40:55;;;;;;;6.10;3.50;;;;;;;28.11;38.36;99103.70;225771;1267;22544;-72
2023/06/05 11:45:58;;;;;;;3.50;3.20;;;;;;;28.21;38.05;99104.96;225750;1271;136877;-72
2023/06/05 11:51:03;;;;;;;3.90;3.40;;;;;;;28.01;37.39;99104.11;225688;1265;137091;-72
2023/06/05 11:56:16;;;;;;;4.10;3.30;;;;;;;27.75;37.51;99103.52;225317;1260;137623;-74
2023/06/05 12:01:24;;;;;;;5.30;3.80;;;;;;;27.72;37.79;99095.63;225679;1272;137292;-72
2023/06/05 12:06:28;;;;;;;5.70;3.80;;;;;;;27.73;38.12;99092.91;225522;1260;137195;-72
2023/06/05 12:11:30;;;;;;;7.00;3.50;;;;;;;27.63;38.00;99088.77;225463;1274;137714;-74
2023/06/05 12:16:38;;;;;;;4.30;3.40;;;;;;;27.72;37.98;99084.05;225632;1274;22539;-73
2023/06/05 12:21:41;;;;;;;8.70;3.60;;;;;;;27.60;37.02;99078.83;225642;1270;136896;-73
2023/06/05 12:27:00;;;;;;;7.70;3.70;;;;;;;27.58;37.74;99077.22;225447;1270;137069;-73
2023/06/05 12:32:02;;;;;;;;;;;;;;;27.64;37.57;99068.45;225745;1263;137308;-73
2023/06/05 12:37:07;;;;;;;3.60;3.20;;;;;;;27.50;37.24;99067.03;225748;1271;123649;-73
2023/06/05 12:42:13;;;;;;;4.50;4.10;;;;;;;27.17;37.48;99061.55;225498;1277;138193;-72
2023/06/05 12:47:15;;;;;;;4.50;4.10;;;;;;;27.24;37.70;99051.86;225473;1271;137306;-70
2023/06/05 12:52:18;;;;;;;5.20;3.50;;;;;;;27.35;37.42;99053.77;225705;1268;22593;-72
2023/06/05 12:57:21;;;;;;;7.20;4.00;;;;;;;27.20;37.45;99050.00;225795;1264;136894;-72
2023/06/05 13:02:24;;;;;;;5.60;4.00;;;;;;;27.11;38.24;99044.54;225503;1277;137261;-72
2023/06/05 13:07:27;;;;;;;4.20;3.80;;;;;;;26.98;38.40;99045.56;225532;1264;137388;-72
2023/06/05 13:12:29;;;;;;;3.90;3.60;;;;;;;26.90;38.19;99041.27;225589;1276;137281;-72
2023/06/05 13:17:34;;;;;;;4.50;3.80;;;;;;;27.08;38.23;99033.55;225735;1262;137564;-72
2023/06/05 13:22:39;;;;;;;5.80;4.10;;;;;;;27.19;37.64;99029.50;225655;1271;22555;-72
2023/06/05 13:27:41;;;;;;;4.60;3.70;;;;;;;27.33;37.99;99018.70;225709;1264;136877;-72
2023/06/05 13:32:45;;;;;;;4.30;3.40;;;;;;;27.56;38.18;99015.40;225573;1269;137230;-72
2023/06/05 13:37:49;;;;;;;5.80;3.80;;;;;;;27.83;38.15;99013.25;225697;1272;137480;-72
2023/06/05 13:42:53;;;;;;;5.00;3.80;;;;;;;28.04;38.23;99015.13;225646;1265;137326;-72
2023/06/05 13:47:54;;;;;;;6.60;3.90;;;;;;;28.26;37.99;99008.85;225536;1274;137219;-71
2023/06/05 13:52:57;;;;;;;4.40;3.60;;;;;;;28.22;37.40;99013.48;225818;1265;25360;-73
2023/06/05 13:58:01;;;;;;;4.50;3.90;;;;;;;28.05;37.52;99010.64;225714;1265;136991;-71
2023/06/05 14:03:03;;;;;;;5.80;4.00;;;;;;;27.91;37.71;99009.09;225793;1266;22519;-71
2023/06/05 14:08:14;;;;;;;5.70;3.90;;;;;;;27.79;37.92;99002.91;225964;1275;22542;-71
2023/06/05 14:13:15;;;;;;;6.80;3.80;;;;;;;27.62;38.01;98995.88;226108;1274;22548;-71
2023/06/05 14:18:17;;;;;;;5.00;4.00;;;;;;;27.52;38.10;98994.18;226342;1278;22688;-72
2023/06/05 14:23:22;;;;;;;5.60;4.10;;;;;;;27.39;37.99;98988.33;226295;1276;23737;-72
2023/06/05 14:28:25;;;;;;;5.40;4.40;;;;;;;27.54;38.46;98986.38;226146;1278;23336;-72
2023/06/05 14:33:27;;;;;;;5.60;4.00;;;;;;;27.74;38.58;98986.58;226388;1275;22546;-72
2023/06/05 14:38:29;;;;;;;5.40;4.20;;;;;;;27.95;38.29;98983.88;226318;1276;22532;-72
2023/06/05 14:43:31;;;;;;;5.50;3.80;;;;;;;28.17;38.62;98977.67;226325;1278;24266;-72
2023/06/05 14:48:34;;;;;;;4.70;3.50;;;;;;;28.38;38.31;98979.17;226368;1274;22556;-71
2023/06/05 14:53:36;;;;;;;10.40;4.40;;;;;;;28.48;38.15;98979.56;226307;1275;22634;-73
2023/06/05 14:58:38;;;;;;;6.00;4.10;;;;;;;28.31;37.98;98975.82;226270;1275;22573;-71
2023/06/05 15:03:40;;;;;;;8.10;4.30;;;;;;;28.17;38.23;98974.80;226365;1274;22578;-72
2023/06/05 15:08:42;;;;;;;3.90;3.60;;;;;;;28.16;38.71;98972.59;226355;1275;22610;-72
2023/06/05 15:13:44;;;;;;;5.40;4.20;;;;;;;28.24;38.62;98971.27;226340;1276;22585;-72
2023/06/05 15:18:47;;;;;;;4.60;3.70;;;;;;;28.25;38.95;98973.11;226300;1272;22544;-72
2023/06/05 15:23:49;;;;;;;8.80;4.70;;;;;;;28.12;39.20;98973.36;226442;1276;22962;-72
2023/06/05 15:28:52;;;;;;;5.80;4.30;;;;;;;27.75;39.14;98974.23;226349;1275;22537;-71
2023/06/05 15:33:54;;;;;;;5.50;3.80;;;;;;;27.23;39.71;98970.42;226322;1276;24540;-70
2023/06/05 15:38:59;;;;;;;19.70;7.10;;;;;;;26.73;40.07;98972.02;226391;1275;22986;-71
2023/06/05 15:44:01;;;;;;;6.40;4.30;;;;;;;26.43;40.77;98976.77;226383;1276;24260;-71
2023/06/05 15:49:03;;;;;;;6.40;5.10;;;;;;;26.20;41.09;98972.67;226370;1263;24234;-71
2023/06/05 15:54:05;;;;;;;5.10;3.90;;;;;;;26.01;41.40;98975.19;226385;1274;22543;-71
2023/06/05 15:59:27;;;;;;;6.40;4.40;;;;;;;25.71;41.97;98977.25;226414;1278;22548;-71
2023/06/05 16:04:38;;;;;;;5.00;4.30;;;;;;;25.44;42.07;98977.66;226320;1278;22954;-71
2023/06/05 16:09:40;;;;;;;11.20;4.60;;;;;;;25.19;42.37;98973.38;226363;1270;22539;-71
2023/06/05 16:14:52;;;;;;;4.90;4.20;;;;;;;25.12;42.80;98974.60;226349;1278;22541;-71
2023/06/05 16:19:55;;;;;;;7.50;4.80;;;;;;;24.97;43.21;98974.39;226398;1269;22537;-71
2023/06/05 16:25:02;;;;;;;7.50;5.50;;;;;;;24.83;43.95;98969.61;226147;1277;23629;-72
2023/06/05 16:30:05;;;;;;;11.10;5.80;;;;;;;24.50;45.78;98977.00;226383;1273;22568;-71
2023/06/05 16:35:08;;;;;;;25.10;9.90;;;;;;;24.17;47.10;98982.33;226130;1276;22707;-71
2023/06/05 16:40:11;;;;;;;9.10;6.40;;;;;;;23.89;47.94;98979.85;226272;1275;22579;-72
2023/06/05 16:45:13;;;;;;;10.80;7.70;;;;;;;23.65;48.54;98975.36;226143;1278;22560;-72
2023/06/05 16:50:15;;;;;;;9.90;6.60;;;;;;;23.52;49.06;98977.27;226349;1274;22574;-71
2023/06/05 16:55:17;;;;;;;10.20;6.90;;;;;;;23.44;49.60;98975.94;226307;1276;22521;-72
2023/06/05 17:00:19;;;;;;;14.20;6.60;;;;;;;23.39;49.95;98975.23;226260;1276;22533;-71
2023/06/05 17:05:21;;;;;;;10.40;6.60;;;;;;;23.30;50.07;98973.91;226302;1275;22523;-72
2023/06/05 17:10:27;;;;;;;7.70;6.20;;;;;;;23.19;50.35;98972.27;226146;1277;22537;-71
2023/06/05 17:15:29;;;;;;;9.40;6.20;;;;;;;23.07;50.73;98974.39;226194;1273;22539;-72
2023/06/05 17:20:31;;;;;;;8.70;6.00;;;;;;;22.99;51.12;98972.25;226249;1259;22579;-73
2023/06/05 17:25:33;;;;;;;8.90;5.50;;;;;;;22.87;51.38;98968.32;226294;1278;23313;-72
2023/06/05 17:30:36;;;;;;;7.60;5.50;;;;;;;22.74;51.62;98970.67;226332;1273;22534;-72
2023/06/05 17:35:45;;;;;;;5.80;5.20;;;;;;;22.56;51.84;98968.30;226376;1273;22533;-72
2023/06/05 17:40:47;;;;;;;11.60;5.10;;;;;;;22.36;52.11;98966.19;226357;1278;22532;-72
2023/06/05 17:45:49;;;;;;;5.40;4.60;;;;;;;22.17;52.52;98966.60;226290;1278;22562;-72
2023/06/05 17:50:51;;;;;;;8.30;5.00;;;;;;;21.97;53.19;98969.02;226221;1276;22572;-72
2023/06/05 17:55:53;;;;;;;5.50;5.00;;;;;;;21.81;53.75;98968.61;226184;1278;22537;-71
2023/06/05 18:00:56;;;;;;;7.60;4.80;;;;;;;21.65;54.22;98968.25;226383;1275;22573;-72
2023/06/05 18:05:58;;;;;;;6.10;4.60;;;;;;;21.46;54.77;98968.44;226395;1266;22560;-72
2023/06/05 18:11:01;;;;;;;7.50;4.30;;;;;;;21.26;55.05;98971.14;226326;1269;22541;-72
2023/06/05 18:16:03;;;;;;;4.90;4.30;;;;;;;21.02;55.58;98971.74;226178;1276;165654;-71
2023/06/05 18:21:11;;;;;;;5.20;4.50;;;;;;;20.82;56.13;98973.88;226246;1276;22565;-71
2023/06/05 18:26:17;;;;;;;7.90;4.60;;;;;;;20.66;56.55;98976.84;226368;1275;25315;-71
2023/06/05 18:31:20;;;;;;;6.00;4.30;;;;;;;20.52;57.15;98982.71;226406;1278;22541;-73
2023/06/05 18:36:22;;;;;;;6.90;4.50;;;;;;;20.40;57.55;98990.98;226162;1278;22507;-72
2023/06/05 18:41:25;;;;;;;6.30;4.70;;;;;;;20.30;57.90;98993.86;226128;1278;22549;-71
2023/06/05 18:46:27;;;;;;;6.90;5.10;;;;;;;20.21;58.22;98988.82;226383;1275;25318;-72
2023/06/05 18:51:29;;;;;;;8.40;4.60;;;;;;;20.11;58.52;98997.14;226151;1278;22541;-72
2023/06/05 18:56:32;;;;;;;5.20;4.60;;;;;;;19.99;58.77;99005.23;226378;1278;22612;-71
2023/06/05 19:01:33;;;;;;;5.40;4.90;;;;;;;19.89;58.94;99009.62;226283;1278;25251;-71
2023/06/05 19:06:36;;;;;;;5.90;4.90;;;;;;;19.80;59.37;99010.30;226344;1275;23081;-72
2023/06/05 19:11:41;;;;;;;5.80;4.40;;;;;;;19.71;59.55;99013.80;226303;1276;24980;-71
2023/06/05 19:16:43;;;;;;;6.60;4.50;;;;;;;19.61;59.77;99018.11;226291;1276;22549;-72
2023/06/05 19:21:45;;;;;;;6.20;4.80;;;;;;;19.51;60.00;99017.55;226410;1276;22541;-72
2023/06/05 19:26:47;;;;;;;6.70;4.70;;;;;;;19.43;60.60;99018.08;226412;1276;22532;-72
2023/06/05 19:31:50;;;;;;;8.60;5.50;;;;;;;19.34;61.19;99019.15;226346;1271;22537;-72
2023/06/05 19:36:52;;;;;;;7.80;4.90;;;;;;;19.28;61.42;99023.59;226275;1275;22574;-72
2023/06/05 19:41:54;;;;;;;5.60;5.10;;;;;;;19.22;61.53;99023.79;226237;1275;22547;-71
2023/06/05 19:46:56;;;;;;;7.10;5.00;;;;;;;19.19;61.75;99021.79;226392;1276;25485;-71
2023/06/05 19:52:00;;;;;;;8.10;5.10;;;;;;;19.16;61.81;99025.52;226184;1278;22536;-72
2023/06/05 19:57:02;;;;;;;6.80;5.80;;;;;;;19.13;61.99;99024.58;226375;1276;25229;-72
2023/06/05 20:02:05;;;;;;;7.60;5.40;;;;;;;19.10;62.26;99022.27;226225;1278;22667;-72
2023/06/05 20:07:07;;;;;;;6.70;5.50;;;;;;;19.09;62.46;99018.80;226114;1278;25271;-73
2023/06/05 20:12:09;;;;;;;9.00;5.70;;;;;;;19.06;62.83;99016.33;226349;1275;22532;-72
2023/06/05 20:17:11;;;;;;;6.90;5.30;;;;;;;19.02;62.93;99012.98;226295;1275;22564;-70
2023/06/05 20:22:15;;;;;;;8.40;5.50;;;;;;;18.96;63.18;99014.27;226416;1276;22542;-72
2023/06/05 20:27:17;;;;;;;6.20;5.60;;;;;;;18.90;63.36;99014.17;226370;1275;23314;-72
2023/06/05 20:32:19;;;;;;;6.30;5.60;;;;;;;18.83;63.61;99005.90;226419;1273;22656;-71
2023/06/05 20:37:29;;;;;;;8.30;6.00;;;;;;;18.80;63.67;99005.77;226439;1278;22655;-72
2023/06/05 20:42:34;;;;;;;6.20;5.60;;;;;;;18.77;63.87;99004.27;226242;1278;25467;-71
2023/06/05 20:47:38;;;;;;;8.80;5.70;;;;;;;18.74;63.96;99003.89;226361;1276;22533;-72
2023/06/05 20:52:41;;;;;;;7.00;5.70;;;;;;;18.70;64.15;98999.99;226377;1275;22520;-72
2023/06/05 20:57:43;;;;;;;6.20;5.50;;;;;;;18.67;64.13;99001.33;226436;1276;24365;-71
2023/06/05 21:02:45;;;;;;;10.80;5.60;;;;;;;18.63;64.29;99004.23;226399;1277;22534;-71
2023/06/05 21:07:48;;;;;;;8.10;6.00;;;;;;;18.57;64.78;99005.10;226381;1277;22591;-72
2023/06/05 21:12:50;;;;;;;11.40;6.10;;;;;;;18.52;64.71;99005.85;226440;1275;22550;-71
2023/06/05 21:17:54;;;;;;;9.90;6.10;;;;;;;18.48;64.84;98996.81;226437;1278;22537;-71
2023/06/05 21:22:56;;;;;;;14.30;7.60;;;;;;;18.43;64.84;98996.36;226375;1273;22569;-71
2023/06/05 21:27:58;;;;;;;10.80;6.00;;;;;;;18.37;65.07;98998.43;226402;1276;25328;-71
2023/06/05 21:33:00;;;;;;;6.70;5.80;;;;;;;18.32;65.26;98998.87;226443;1276;22543;-72
2023/06/05 21:38:03;;;;;;;9.00;6.30;;;;;;;18.30;65.36;98998.32;226414;1277;26096;-71
2023/06/05 21:43:05;;;;;;;10.70;6.70;;;;;;;18.28;65.34;98999.67;226432;1276;22560;-70
2023/06/05 21:48:07;;;;;;;8.30;5.80;;;;;;;18.26;65.41;99000.10;226352;1277;22623;-71
2023/06/05 21:53:11;;;;;;;9.60;6.70;;;;;;;18.26;65.64;99000.64;226377;1256;22547;-71
2023/06/05 21:58:16;;;;;;;7.30;5.80;;;;;;;18.29;65.41;98999.86;226336;1276;22533;-72
2023/06/05 22:03:18;;;;;;;7.90;5.70;;;;;;;18.31;65.49;98996.91;226368;1277;23376;-71
2023/06/05 22:08:20;;;;;;;6.70;6.00;;;;;;;18.33;65.58;99001.61;226357;1275;22628;-72
2023/06/05 22:13:22;;;;;;;10.50;5.70;;;;;;;18.35;65.32;99001.43;226381;1275;22566;-72
2023/06/05 22:18:27;;;;;;;7.00;5.80;;;;;;;18.36;65.52;99001.45;226328;1276;22565;-72
2023/06/05 22:23:30;;;;;;;14.20;12.70;;;;;;;18.37;65.19;98998.39;226379;1276;22535;-71
2023/06/05 22:28:32;;;;;;;18.90;16.80;;;;;;;18.39;65.05;98995.02;226385;1278;22533;-72
2023/06/05 22:33:38;;;;;;;14.50;13.00;;;;;;;18.43;64.85;98997.33;226354;1277;22576;-71
2023/06/05 22:38:42;;;;;;;12.80;7.50;;;;;;;18.44;64.91;98998.73;226348;1277;22768;-71
2023/06/05 22:43:44;;;;;;;10.60;7.10;;;;;;;18.43;64.73;98997.98;226279;1276;22552;-71
2023/06/05 22:48:49;;;;;;;9.70;6.30;;;;;;;18.41;64.49;98993.16;226397;1276;23510;-71
2023/06/05 22:53:51;;;;;;;11.90;6.20;;;;;;;18.40;64.58;98996.27;226386;1270;22543;-71
2023/06/05 22:58:54;;;;;;;8.90;6.10;;;;;;;18.41;64.43;98999.73;226390;1264;22540;-70
2023/06/05 23:03:56;;;;;;;8.30;5.90;;;;;;;18.40;64.40;98998.17;226387;1276;22545;-71
2023/06/05 23:09:04;;;;;;;9.20;6.70;;;;;;;18.38;64.84;98998.84;226494;1276;22637;-71
2023/06/05 23:14:12;;;;;;;7.80;6.90;;;;;;;18.31;65.11;98996.42;226489;1277;22464;-71
2023/06/05 23:19:15;;;;;;;10.00;6.90;;;;;;;18.23;65.34;98996.56;226399;1278;22534;-70
2023/06/05 23:24:18;;;;;;;8.10;6.60;;;;;;;18.16;65.55;98996.66;226347;1277;22585;-70
2023/06/05 23:29:21;;;;;;;10.20;6.70;;;;;;;18.14;65.72;98992.48;226391;1277;22544;-71
2023/06/05 23:34:23;;;;;;;7.90;6.30;;;;;;;18.14;65.60;98988.73;226424;1277;22568;-71